sensor_id;sensor_type;location;lat;lon;timestamp;P1;durP1;ratioP1;P2;durP2;ratioP2
54599;SDS011;40500;51.084;16.958;2023-04-03T00:02:32;3.00;;;1.30;;
54599;SDS011;40500;51.084;16.958;2023-04-03T00:05:00;3.60;;;1.70;;
54599;SDS011;40500;51.084;16.958;2023-04-03T00:07:27;7.70;;;1.80;;
54599;SDS011;40500;51.084;16.958;2023-04-03T00:09:55;4.40;;;1.60;;
54599;SDS011;40500;51.084;16.958;2023-04-03T00:12:22;3.20;;;1.40;;
54599;SDS011;40500;51.084;16.958;2023-04-03T00:14:50;6.60;;;1.90;;
54599;SDS011;40500;51.084;16.958;2023-04-03T00:17:18;3.40;;;1.80;;
54599;SDS011;40500;51.084;16.958;2023-04-03T00:19:45;7.90;;;1.80;;
54599;SDS011;40500;51.084;16.958;2023-04-03T00:22:13;3.20;;;1.40;;
54599;SDS011;40500;51.084;16.958;2023-04-03T00:24:40;4.40;;;1.70;;
54599;SDS011;40500;51.084;16.958;2023-04-03T00:27:08;4.80;;;2.10;;
54599;SDS011;40500;51.084;16.958;2023-04-03T00:29:37;3.50;;;1.80;;
54599;SDS011;40500;51.084;16.958;2023-04-03T00:32:05;9.60;;;1.90;;
54599;SDS011;40500;51.084;16.958;2023-04-03T00:34:32;1.50;;;1.40;;
54599;SDS011;40500;51.084;16.958;2023-04-03T00:37:00;8.10;;;2.20;;
54599;SDS011;40500;51.084;16.958;2023-04-03T00:39:28;4.40;;;1.70;;
54599;SDS011;40500;51.084;16.958;2023-04-03T00:41:56;1.40;;;1.20;;
54599;SDS011;40500;51.084;16.958;2023-04-03T00:47:23;5.60;;;1.70;;
54599;SDS011;40500;51.084;16.958;2023-04-03T00:49:52;5.20;;;1.60;;
54599;SDS011;40500;51.084;16.958;2023-04-03T00:52:21;4.20;;;1.70;;
54599;SDS011;40500;51.084;16.958;2023-04-03T00:54:52;4.70;;;1.60;;
54599;SDS011;40500;51.084;16.958;2023-04-03T00:57:24;4.60;;;1.60;;
54599;SDS011;40500;51.084;16.958;2023-04-03T00:59:53;8.00;;;2.50;;
54599;SDS011;40500;51.084;16.958;2023-04-03T01:02:25;6.90;;;1.80;;
54599;SDS011;40500;51.084;16.958;2023-04-03T01:04:53;3.00;;;1.50;;
54599;SDS011;40500;51.084;16.958;2023-04-03T01:07:21;5.00;;;1.90;;
54599;SDS011;40500;51.084;16.958;2023-04-03T01:09:51;1.60;;;1.10;;
54599;SDS011;40500;51.084;16.958;2023-04-03T01:12:23;3.30;;;1.80;;
54599;SDS011;40500;51.084;16.958;2023-04-03T01:14:53;3.40;;;1.40;;
54599;SDS011;40500;51.084;16.958;2023-04-03T01:17:29;3.20;;;1.40;;
54599;SDS011;40500;51.084;16.958;2023-04-03T01:20:08;3.20;;;1.40;;
54599;SDS011;40500;51.084;16.958;2023-04-03T01:23:02;6.00;;;1.90;;
54599;SDS011;40500;51.084;16.958;2023-04-03T01:25:39;2.80;;;1.80;;
54599;SDS011;40500;51.084;16.958;2023-04-03T01:28:10;3.30;;;1.70;;
54599;SDS011;40500;51.084;16.958;2023-04-03T01:30:41;5.70;;;1.60;;
54599;SDS011;40500;51.084;16.958;2023-04-03T01:33:14;2.40;;;1.30;;
54599;SDS011;40500;51.084;16.958;2023-04-03T01:35:42;6.00;;;2.00;;
54599;SDS011;40500;51.084;16.958;2023-04-03T01:38:11;5.50;;;1.40;;
54599;SDS011;40500;51.084;16.958;2023-04-03T01:40:39;3.40;;;1.60;;
54599;SDS011;40500;51.084;16.958;2023-04-03T01:43:08;4.00;;;1.50;;
54599;SDS011;40500;51.084;16.958;2023-04-03T01:45:36;5.80;;;1.70;;
54599;SDS011;40500;51.084;16.958;2023-04-03T01:48:04;5.40;;;1.90;;
54599;SDS011;40500;51.084;16.958;2023-04-03T01:50:32;5.40;;;1.80;;
54599;SDS011;40500;51.084;16.958;2023-04-03T01:53:00;4.40;;;2.10;;
54599;SDS011;40500;51.084;16.958;2023-04-03T01:55:28;4.90;;;1.70;;
54599;SDS011;40500;51.084;16.958;2023-04-03T01:57:56;4.90;;;2.40;;
54599;SDS011;40500;51.084;16.958;2023-04-03T02:00:24;9.10;;;2.30;;
54599;SDS011;40500;51.084;16.958;2023-04-03T02:02:52;5.00;;;1.60;;
54599;SDS011;40500;51.084;16.958;2023-04-03T02:05:20;5.90;;;1.60;;
54599;SDS011;40500;51.084;16.958;2023-04-03T02:07:48;4.00;;;1.70;;
54599;SDS011;40500;51.084;16.958;2023-04-03T02:10:15;4.00;;;1.80;;
54599;SDS011;40500;51.084;16.958;2023-04-03T02:12:43;6.60;;;1.80;;
54599;SDS011;40500;51.084;16.958;2023-04-03T02:15:11;4.50;;;2.10;;
54599;SDS011;40500;51.084;16.958;2023-04-03T02:17:39;5.20;;;2.40;;
54599;SDS011;40500;51.084;16.958;2023-04-03T02:20:07;4.60;;;2.00;;
54599;SDS011;40500;51.084;16.958;2023-04-03T02:22:36;7.00;;;2.00;;
54599;SDS011;40500;51.084;16.958;2023-04-03T02:25:04;3.80;;;2.10;;
54599;SDS011;40500;51.084;16.958;2023-04-03T02:27:32;5.20;;;1.90;;
54599;SDS011;40500;51.084;16.958;2023-04-03T02:30:00;6.70;;;3.00;;
54599;SDS011;40500;51.084;16.958;2023-04-03T02:32:27;2.60;;;1.70;;
54599;SDS011;40500;51.084;16.958;2023-04-03T02:34:56;6.30;;;2.10;;
54599;SDS011;40500;51.084;16.958;2023-04-03T02:37:24;5.90;;;2.50;;
54599;SDS011;40500;51.084;16.958;2023-04-03T02:39:52;4.10;;;2.00;;
54599;SDS011;40500;51.084;16.958;2023-04-03T02:42:20;3.20;;;2.00;;
54599;SDS011;40500;51.084;16.958;2023-04-03T02:44:47;6.50;;;2.40;;
54599;SDS011;40500;51.084;16.958;2023-04-03T02:47:15;4.00;;;2.40;;
54599;SDS011;40500;51.084;16.958;2023-04-03T02:49:43;2.40;;;1.70;;
54599;SDS011;40500;51.084;16.958;2023-04-03T02:52:12;3.70;;;2.50;;
54599;SDS011;40500;51.084;16.958;2023-04-03T02:54:40;6.40;;;3.40;;
54599;SDS011;40500;51.084;16.958;2023-04-03T02:57:09;5.30;;;2.30;;
54599;SDS011;40500;51.084;16.958;2023-04-03T02:59:37;4.80;;;1.80;;
54599;SDS011;40500;51.084;16.958;2023-04-03T03:02:07;6.00;;;2.30;;
54599;SDS011;40500;51.084;16.958;2023-04-03T03:04:35;2.90;;;2.10;;
54599;SDS011;40500;51.084;16.958;2023-04-03T03:07:03;2.90;;;1.60;;
54599;SDS011;40500;51.084;16.958;2023-04-03T03:09:31;7.00;;;2.70;;
54599;SDS011;40500;51.084;16.958;2023-04-03T03:11:59;9.10;;;3.10;;
54599;SDS011;40500;51.084;16.958;2023-04-03T03:14:28;3.60;;;2.50;;
54599;SDS011;40500;51.084;16.958;2023-04-03T03:16:56;2.30;;;1.80;;
54599;SDS011;40500;51.084;16.958;2023-04-03T03:19:24;4.80;;;2.60;;
54599;SDS011;40500;51.084;16.958;2023-04-03T03:21:52;5.50;;;2.30;;
54599;SDS011;40500;51.084;16.958;2023-04-03T03:24:19;5.90;;;2.30;;
54599;SDS011;40500;51.084;16.958;2023-04-03T03:26:47;6.20;;;2.70;;
54599;SDS011;40500;51.084;16.958;2023-04-03T03:29:15;5.20;;;2.30;;
54599;SDS011;40500;51.084;16.958;2023-04-03T03:31:43;2.60;;;1.90;;
54599;SDS011;40500;51.084;16.958;2023-04-03T03:34:11;3.20;;;1.90;;
54599;SDS011;40500;51.084;16.958;2023-04-03T03:36:39;7.60;;;2.50;;
54599;SDS011;40500;51.084;16.958;2023-04-03T03:39:07;6.00;;;2.80;;
54599;SDS011;40500;51.084;16.958;2023-04-03T03:41:35;5.60;;;2.20;;
54599;SDS011;40500;51.084;16.958;2023-04-03T03:44:03;8.30;;;2.80;;
54599;SDS011;40500;51.084;16.958;2023-04-03T03:46:32;4.20;;;2.50;;
54599;SDS011;40500;51.084;16.958;2023-04-03T03:48:59;3.10;;;2.30;;
54599;SDS011;40500;51.084;16.958;2023-04-03T03:51:27;6.70;;;2.20;;
54599;SDS011;40500;51.084;16.958;2023-04-03T03:53:56;5.40;;;2.20;;
54599;SDS011;40500;51.084;16.958;2023-04-03T03:56:24;4.90;;;2.60;;
54599;SDS011;40500;51.084;16.958;2023-04-03T03:58:53;4.60;;;2.30;;
54599;SDS011;40500;51.084;16.958;2023-04-03T04:01:22;8.60;;;2.60;;
54599;SDS011;40500;51.084;16.958;2023-04-03T04:03:51;4.50;;;2.30;;
54599;SDS011;40500;51.084;16.958;2023-04-03T04:06:22;7.40;;;2.60;;
54599;SDS011;40500;51.084;16.958;2023-04-03T04:08:49;4.00;;;2.00;;
54599;SDS011;40500;51.084;16.958;2023-04-03T04:11:17;4.60;;;2.00;;
54599;SDS011;40500;51.084;16.958;2023-04-03T04:13:45;7.10;;;3.50;;
54599;SDS011;40500;51.084;16.958;2023-04-03T04:16:13;6.00;;;2.40;;
54599;SDS011;40500;51.084;16.958;2023-04-03T04:18:41;7.00;;;2.80;;
54599;SDS011;40500;51.084;16.958;2023-04-03T04:21:09;5.40;;;2.60;;
54599;SDS011;40500;51.084;16.958;2023-04-03T04:23:38;6.00;;;2.30;;
54599;SDS011;40500;51.084;16.958;2023-04-03T04:26:05;5.80;;;2.60;;
54599;SDS011;40500;51.084;16.958;2023-04-03T04:28:35;3.20;;;2.30;;
54599;SDS011;40500;51.084;16.958;2023-04-03T04:31:02;4.70;;;2.40;;
54599;SDS011;40500;51.084;16.958;2023-04-03T04:33:31;11.00;;;2.40;;
54599;SDS011;40500;51.084;16.958;2023-04-03T04:35:59;10.40;;;2.70;;
54599;SDS011;40500;51.084;16.958;2023-04-03T04:38:28;7.40;;;2.50;;
54599;SDS011;40500;51.084;16.958;2023-04-03T04:40:56;5.40;;;2.60;;
54599;SDS011;40500;51.084;16.958;2023-04-03T04:43:24;5.20;;;2.70;;
54599;SDS011;40500;51.084;16.958;2023-04-03T04:46:00;6.70;;;3.00;;
54599;SDS011;40500;51.084;16.958;2023-04-03T04:48:29;4.50;;;2.00;;
54599;SDS011;40500;51.084;16.958;2023-04-03T04:50:59;5.60;;;2.60;;
54599;SDS011;40500;51.084;16.958;2023-04-03T04:53:26;5.60;;;2.20;;
54599;SDS011;40500;51.084;16.958;2023-04-03T04:55:54;7.20;;;2.80;;
54599;SDS011;40500;51.084;16.958;2023-04-03T04:58:22;3.80;;;1.80;;
54599;SDS011;40500;51.084;16.958;2023-04-03T05:00:50;6.90;;;2.80;;
54599;SDS011;40500;51.084;16.958;2023-04-03T05:03:26;4.90;;;2.40;;
54599;SDS011;40500;51.084;16.958;2023-04-03T05:05:54;5.40;;;2.20;;
54599;SDS011;40500;51.084;16.958;2023-04-03T05:08:22;6.70;;;2.80;;
54599;SDS011;40500;51.084;16.958;2023-04-03T05:10:50;7.20;;;2.40;;
54599;SDS011;40500;51.084;16.958;2023-04-03T05:13:21;4.40;;;1.90;;
54599;SDS011;40500;51.084;16.958;2023-04-03T05:15:49;7.80;;;2.20;;
54599;SDS011;40500;51.084;16.958;2023-04-03T05:18:16;5.40;;;2.20;;
54599;SDS011;40500;51.084;16.958;2023-04-03T05:20:45;3.70;;;2.10;;
54599;SDS011;40500;51.084;16.958;2023-04-03T05:23:15;7.60;;;2.30;;
54599;SDS011;40500;51.084;16.958;2023-04-03T05:25:43;3.80;;;2.20;;
54599;SDS011;40500;51.084;16.958;2023-04-03T05:28:13;6.00;;;2.10;;
54599;SDS011;40500;51.084;16.958;2023-04-03T05:30:41;6.10;;;2.60;;
54599;SDS011;40500;51.084;16.958;2023-04-03T05:33:09;4.40;;;1.90;;
54599;SDS011;40500;51.084;16.958;2023-04-03T05:35:44;5.50;;;1.60;;
54599;SDS011;40500;51.084;16.958;2023-04-03T05:38:17;2.20;;;1.50;;
54599;SDS011;40500;51.084;16.958;2023-04-03T05:40:45;4.70;;;1.70;;
54599;SDS011;40500;51.084;16.958;2023-04-03T05:43:12;5.20;;;2.00;;
54599;SDS011;40500;51.084;16.958;2023-04-03T05:45:42;6.20;;;2.20;;
54599;SDS011;40500;51.084;16.958;2023-04-03T05:48:13;6.90;;;2.20;;
54599;SDS011;40500;51.084;16.958;2023-04-03T05:50:41;6.50;;;2.00;;
54599;SDS011;40500;51.084;16.958;2023-04-03T05:53:14;3.00;;;2.00;;
54599;SDS011;40500;51.084;16.958;2023-04-03T05:55:45;3.60;;;1.50;;
54599;SDS011;40500;51.084;16.958;2023-04-03T05:58:13;3.80;;;1.90;;
54599;SDS011;40500;51.084;16.958;2023-04-03T06:00:45;2.80;;;2.00;;
54599;SDS011;40500;51.084;16.958;2023-04-03T06:03:13;3.70;;;1.70;;
54599;SDS011;40500;51.084;16.958;2023-04-03T06:05:42;4.30;;;1.80;;
54599;SDS011;40500;51.084;16.958;2023-04-03T06:08:10;5.00;;;1.90;;
54599;SDS011;40500;51.084;16.958;2023-04-03T06:10:39;3.10;;;2.00;;
54599;SDS011;40500;51.084;16.958;2023-04-03T06:13:07;7.70;;;2.20;;
54599;SDS011;40500;51.084;16.958;2023-04-03T06:15:34;1.90;;;1.70;;
54599;SDS011;40500;51.084;16.958;2023-04-03T06:18:03;3.90;;;2.10;;
54599;SDS011;40500;51.084;16.958;2023-04-03T06:20:30;5.00;;;2.30;;
54599;SDS011;40500;51.084;16.958;2023-04-03T06:22:59;6.40;;;2.10;;
54599;SDS011;40500;51.084;16.958;2023-04-03T06:25:28;2.30;;;1.80;;
54599;SDS011;40500;51.084;16.958;2023-04-03T06:27:56;4.00;;;2.30;;
54599;SDS011;40500;51.084;16.958;2023-04-03T06:30:24;5.60;;;2.20;;
54599;SDS011;40500;51.084;16.958;2023-04-03T06:32:52;4.00;;;2.20;;
54599;SDS011;40500;51.084;16.958;2023-04-03T06:35:20;4.40;;;1.90;;
54599;SDS011;40500;51.084;16.958;2023-04-03T06:37:50;5.80;;;2.30;;
54599;SDS011;40500;51.084;16.958;2023-04-03T06:40:19;2.00;;;1.60;;
54599;SDS011;40500;51.084;16.958;2023-04-03T06:42:50;7.80;;;2.20;;
54599;SDS011;40500;51.084;16.958;2023-04-03T06:45:19;5.10;;;2.40;;
54599;SDS011;40500;51.084;16.958;2023-04-03T06:47:48;3.30;;;2.20;;
54599;SDS011;40500;51.084;16.958;2023-04-03T06:50:16;6.60;;;2.00;;
54599;SDS011;40500;51.084;16.958;2023-04-03T06:52:44;4.50;;;2.10;;
54599;SDS011;40500;51.084;16.958;2023-04-03T06:55:12;6.50;;;2.50;;
54599;SDS011;40500;51.084;16.958;2023-04-03T06:57:40;3.20;;;1.90;;
54599;SDS011;40500;51.084;16.958;2023-04-03T07:00:08;5.10;;;1.80;;
54599;SDS011;40500;51.084;16.958;2023-04-03T07:02:38;5.80;;;2.30;;
54599;SDS011;40500;51.084;16.958;2023-04-03T07:05:07;2.90;;;1.90;;
54599;SDS011;40500;51.084;16.958;2023-04-03T07:07:35;5.00;;;2.20;;
54599;SDS011;40500;51.084;16.958;2023-04-03T07:10:05;6.20;;;3.40;;
54599;SDS011;40500;51.084;16.958;2023-04-03T07:12:34;5.90;;;1.90;;
54599;SDS011;40500;51.084;16.958;2023-04-03T07:15:03;6.50;;;2.20;;
54599;SDS011;40500;51.084;16.958;2023-04-03T07:17:32;4.70;;;1.90;;
54599;SDS011;40500;51.084;16.958;2023-04-03T07:19:59;6.00;;;2.60;;
54599;SDS011;40500;51.084;16.958;2023-04-03T07:22:31;4.80;;;2.20;;
54599;SDS011;40500;51.084;16.958;2023-04-03T07:24:58;4.80;;;2.20;;
54599;SDS011;40500;51.084;16.958;2023-04-03T07:27:27;4.40;;;2.00;;
54599;SDS011;40500;51.084;16.958;2023-04-03T07:29:55;9.00;;;2.10;;
54599;SDS011;40500;51.084;16.958;2023-04-03T07:32:23;6.40;;;2.30;;
54599;SDS011;40500;51.084;16.958;2023-04-03T07:34:51;4.40;;;2.40;;
54599;SDS011;40500;51.084;16.958;2023-04-03T07:37:18;4.50;;;2.00;;
54599;SDS011;40500;51.084;16.958;2023-04-03T07:39:46;2.80;;;1.90;;
54599;SDS011;40500;51.084;16.958;2023-04-03T07:42:15;5.80;;;2.40;;
54599;SDS011;40500;51.084;16.958;2023-04-03T07:44:42;4.00;;;2.10;;
54599;SDS011;40500;51.084;16.958;2023-04-03T07:47:10;5.10;;;2.10;;
54599;SDS011;40500;51.084;16.958;2023-04-03T07:49:39;2.90;;;1.60;;
54599;SDS011;40500;51.084;16.958;2023-04-03T07:52:07;5.20;;;2.00;;
54599;SDS011;40500;51.084;16.958;2023-04-03T07:54:36;6.20;;;2.50;;
54599;SDS011;40500;51.084;16.958;2023-04-03T07:57:03;4.50;;;1.70;;
54599;SDS011;40500;51.084;16.958;2023-04-03T07:59:32;9.50;;;2.40;;
54599;SDS011;40500;51.084;16.958;2023-04-03T08:02:00;5.30;;;2.10;;
54599;SDS011;40500;51.084;16.958;2023-04-03T08:04:27;3.30;;;2.20;;
54599;SDS011;40500;51.084;16.958;2023-04-03T08:06:55;2.30;;;1.80;;
54599;SDS011;40500;51.084;16.958;2023-04-03T08:09:22;5.20;;;2.10;;
54599;SDS011;40500;51.084;16.958;2023-04-03T08:11:50;6.80;;;1.90;;
54599;SDS011;40500;51.084;16.958;2023-04-03T08:14:19;4.50;;;2.30;;
54599;SDS011;40500;51.084;16.958;2023-04-03T08:16:47;2.40;;;1.70;;
54599;SDS011;40500;51.084;16.958;2023-04-03T08:19:15;6.00;;;2.10;;
54599;SDS011;40500;51.084;16.958;2023-04-03T08:21:52;3.60;;;1.90;;
54599;SDS011;40500;51.084;16.958;2023-04-03T08:24:20;4.40;;;1.80;;
54599;SDS011;40500;51.084;16.958;2023-04-03T08:26:48;4.10;;;1.50;;
54599;SDS011;40500;51.084;16.958;2023-04-03T08:29:16;5.10;;;2.00;;
54599;SDS011;40500;51.084;16.958;2023-04-03T08:31:43;4.40;;;2.00;;
54599;SDS011;40500;51.084;16.958;2023-04-03T08:34:11;2.70;;;1.60;;
54599;SDS011;40500;51.084;16.958;2023-04-03T08:36:40;4.00;;;2.00;;
54599;SDS011;40500;51.084;16.958;2023-04-03T08:39:08;3.70;;;1.50;;
54599;SDS011;40500;51.084;16.958;2023-04-03T08:41:38;1.60;;;0.90;;
54599;SDS011;40500;51.084;16.958;2023-04-03T08:44:15;4.40;;;1.90;;
54599;SDS011;40500;51.084;16.958;2023-04-03T08:46:54;2.80;;;1.00;;
54599;SDS011;40500;51.084;16.958;2023-04-03T08:49:30;3.30;;;1.60;;
54599;SDS011;40500;51.084;16.958;2023-04-03T08:52:01;4.80;;;1.40;;
54599;SDS011;40500;51.084;16.958;2023-04-03T08:54:33;4.20;;;1.30;;
54599;SDS011;40500;51.084;16.958;2023-04-03T08:57:04;1.80;;;1.10;;
54599;SDS011;40500;51.084;16.958;2023-04-03T08:59:33;2.80;;;1.40;;
54599;SDS011;40500;51.084;16.958;2023-04-03T09:02:11;3.30;;;1.70;;
54599;SDS011;40500;51.084;16.958;2023-04-03T09:04:48;5.20;;;1.40;;
54599;SDS011;40500;51.084;16.958;2023-04-03T09:07:16;2.40;;;1.30;;
54599;SDS011;40500;51.084;16.958;2023-04-03T09:09:52;2.70;;;1.60;;
54599;SDS011;40500;51.084;16.958;2023-04-03T09:12:21;3.70;;;1.70;;
54599;SDS011;40500;51.084;16.958;2023-04-03T09:14:56;5.10;;;1.70;;
54599;SDS011;40500;51.084;16.958;2023-04-03T09:17:31;2.50;;;1.30;;
54599;SDS011;40500;51.084;16.958;2023-04-03T09:20:11;5.50;;;1.70;;
54599;SDS011;40500;51.084;16.958;2023-04-03T09:22:47;4.10;;;1.50;;
54599;SDS011;40500;51.084;16.958;2023-04-03T09:25:20;2.90;;;1.40;;
54599;SDS011;40500;51.084;16.958;2023-04-03T09:27:48;1.40;;;1.10;;
54599;SDS011;40500;51.084;16.958;2023-04-03T09:30:17;2.40;;;1.30;;
54599;SDS011;40500;51.084;16.958;2023-04-03T09:32:48;1.50;;;1.20;;
54599;SDS011;40500;51.084;16.958;2023-04-03T09:35:18;3.60;;;1.20;;
54599;SDS011;40500;51.084;16.958;2023-04-03T09:37:59;1.00;;;0.90;;
54599;SDS011;40500;51.084;16.958;2023-04-03T09:40:32;4.20;;;1.10;;
54599;SDS011;40500;51.084;16.958;2023-04-03T09:43:08;1.40;;;1.10;;
54599;SDS011;40500;51.084;16.958;2023-04-03T09:45:48;1.60;;;1.30;;
54599;SDS011;40500;51.084;16.958;2023-04-03T09:48:18;1.80;;;1.10;;
54599;SDS011;40500;51.084;16.958;2023-04-03T09:50:57;2.80;;;1.10;;
54599;SDS011;40500;51.084;16.958;2023-04-03T09:53:35;4.00;;;1.40;;
54599;SDS011;40500;51.084;16.958;2023-04-03T09:56:05;2.20;;;1.20;;
54599;SDS011;40500;51.084;16.958;2023-04-03T09:58:48;3.00;;;2.20;;
54599;SDS011;40500;51.084;16.958;2023-04-03T10:01:22;3.20;;;1.90;;
54599;SDS011;40500;51.084;16.958;2023-04-03T10:04:02;4.60;;;1.40;;
54599;SDS011;40500;51.084;16.958;2023-04-03T10:06:36;2.00;;;1.20;;
54599;SDS011;40500;51.084;16.958;2023-04-03T10:09:16;4.10;;;1.60;;
54599;SDS011;40500;51.084;16.958;2023-04-03T10:12:00;3.40;;;1.90;;
54599;SDS011;40500;51.084;16.958;2023-04-03T10:14:31;1.40;;;1.00;;
54599;SDS011;40500;51.084;16.958;2023-04-03T10:17:01;2.90;;;1.30;;
54599;SDS011;40500;51.084;16.958;2023-04-03T10:19:44;2.10;;;1.30;;
54599;SDS011;40500;51.084;16.958;2023-04-03T10:22:19;2.00;;;1.10;;
54599;SDS011;40500;51.084;16.958;2023-04-03T10:24:57;4.20;;;1.50;;
54599;SDS011;40500;51.084;16.958;2023-04-03T10:27:34;2.60;;;1.30;;
54599;SDS011;40500;51.084;16.958;2023-04-03T10:30:13;1.60;;;1.30;;
54599;SDS011;40500;51.084;16.958;2023-04-03T10:32:57;2.60;;;1.50;;
54599;SDS011;40500;51.084;16.958;2023-04-03T10:35:39;4.00;;;1.40;;
54599;SDS011;40500;51.084;16.958;2023-04-03T10:38:14;1.60;;;1.10;;
54599;SDS011;40500;51.084;16.958;2023-04-03T10:40:52;2.60;;;1.20;;
54599;SDS011;40500;51.084;16.958;2023-04-03T10:43:31;2.00;;;1.30;;
54599;SDS011;40500;51.084;16.958;2023-04-03T10:46:04;3.50;;;1.40;;
54599;SDS011;40500;51.084;16.958;2023-04-03T10:48:42;2.50;;;1.50;;
54599;SDS011;40500;51.084;16.958;2023-04-03T10:51:23;3.00;;;1.70;;
54599;SDS011;40500;51.084;16.958;2023-04-03T10:53:56;1.60;;;1.30;;
54599;SDS011;40500;51.084;16.958;2023-04-03T10:56:30;0.90;;;0.90;;
54599;SDS011;40500;51.084;16.958;2023-04-03T10:59:05;3.30;;;1.70;;
54599;SDS011;40500;51.084;16.958;2023-04-03T11:01:42;3.00;;;1.40;;
54599;SDS011;40500;51.084;16.958;2023-04-03T11:04:13;2.70;;;1.60;;
54599;SDS011;40500;51.084;16.958;2023-04-03T11:06:43;2.90;;;1.40;;
54599;SDS011;40500;51.084;16.958;2023-04-03T11:09:16;1.70;;;1.30;;
54599;SDS011;40500;51.084;16.958;2023-04-03T11:11:49;1.30;;;1.20;;
54599;SDS011;40500;51.084;16.958;2023-04-03T11:14:24;3.00;;;1.40;;
54599;SDS011;40500;51.084;16.958;2023-04-03T11:16:59;1.60;;;1.10;;
54599;SDS011;40500;51.084;16.958;2023-04-03T11:19:38;3.50;;;1.80;;
54599;SDS011;40500;51.084;16.958;2023-04-03T11:22:16;2.90;;;1.30;;
54599;SDS011;40500;51.084;16.958;2023-04-03T11:24:54;2.00;;;1.20;;
54599;SDS011;40500;51.084;16.958;2023-04-03T11:27:33;2.70;;;1.30;;
54599;SDS011;40500;51.084;16.958;2023-04-03T11:30:09;3.60;;;1.60;;
54599;SDS011;40500;51.084;16.958;2023-04-03T11:33:01;4.20;;;1.50;;
54599;SDS011;40500;51.084;16.958;2023-04-03T11:35:45;2.90;;;1.50;;
54599;SDS011;40500;51.084;16.958;2023-04-03T11:38:17;4.80;;;1.60;;
54599;SDS011;40500;51.084;16.958;2023-04-03T11:40:49;2.10;;;1.40;;
54599;SDS011;40500;51.084;16.958;2023-04-03T11:43:21;2.80;;;1.40;;
54599;SDS011;40500;51.084;16.958;2023-04-03T11:45:55;3.30;;;1.60;;
54599;SDS011;40500;51.084;16.958;2023-04-03T11:51:38;2.20;;;1.30;;
54599;SDS011;40500;51.084;16.958;2023-04-03T12:12:57;4.80;;;1.70;;
54599;SDS011;40500;51.084;16.958;2023-04-03T12:21:25;2.40;;;1.50;;
54599;SDS011;40500;51.084;16.958;2023-04-03T12:24:34;5.30;;;1.50;;
54599;SDS011;40500;51.084;16.958;2023-04-03T12:27:09;2.50;;;1.30;;
54599;SDS011;40500;51.084;16.958;2023-04-03T12:29:46;2.30;;;1.10;;
54599;SDS011;40500;51.084;16.958;2023-04-03T12:32:22;2.10;;;1.40;;
54599;SDS011;40500;51.084;16.958;2023-04-03T12:35:10;4.20;;;1.30;;
54599;SDS011;40500;51.084;16.958;2023-04-03T12:37:56;4.90;;;1.60;;
54599;SDS011;40500;51.084;16.958;2023-04-03T12:40:41;5.10;;;1.50;;
54599;SDS011;40500;51.084;16.958;2023-04-03T12:43:20;2.50;;;1.70;;
54599;SDS011;40500;51.084;16.958;2023-04-03T12:46:10;2.00;;;1.40;;
54599;SDS011;40500;51.084;16.958;2023-04-03T12:48:49;3.10;;;1.60;;
54599;SDS011;40500;51.084;16.958;2023-04-03T12:51:20;1.90;;;1.10;;
54599;SDS011;40500;51.084;16.958;2023-04-03T12:53:56;2.40;;;1.50;;
54599;SDS011;40500;51.084;16.958;2023-04-03T12:56:28;2.10;;;1.60;;
54599;SDS011;40500;51.084;16.958;2023-04-03T12:59:13;3.50;;;1.80;;
54599;SDS011;40500;51.084;16.958;2023-04-03T13:01:42;3.30;;;2.00;;
54599;SDS011;40500;51.084;16.958;2023-04-03T13:04:10;3.70;;;1.30;;
54599;SDS011;40500;51.084;16.958;2023-04-03T13:06:40;2.20;;;1.70;;
54599;SDS011;40500;51.084;16.958;2023-04-03T13:09:18;3.40;;;1.70;;
54599;SDS011;40500;51.084;16.958;2023-04-03T13:11:48;3.80;;;1.40;;
54599;SDS011;40500;51.084;16.958;2023-04-03T13:14:19;3.20;;;1.70;;
54599;SDS011;40500;51.084;16.958;2023-04-03T13:16:55;2.00;;;1.50;;
54599;SDS011;40500;51.084;16.958;2023-04-03T13:19:25;3.00;;;1.70;;
54599;SDS011;40500;51.084;16.958;2023-04-03T13:21:57;3.00;;;2.00;;
54599;SDS011;40500;51.084;16.958;2023-04-03T13:24:29;2.30;;;1.70;;
54599;SDS011;40500;51.084;16.958;2023-04-03T13:27:00;2.00;;;1.20;;
54599;SDS011;40500;51.084;16.958;2023-04-03T13:29:29;2.90;;;1.40;;
54599;SDS011;40500;51.084;16.958;2023-04-03T13:32:00;2.30;;;1.40;;
54599;SDS011;40500;51.084;16.958;2023-04-03T13:34:36;2.40;;;1.60;;
54599;SDS011;40500;51.084;16.958;2023-04-03T13:37:06;3.50;;;1.50;;
54599;SDS011;40500;51.084;16.958;2023-04-03T13:39:45;5.70;;;1.30;;
54599;SDS011;40500;51.084;16.958;2023-04-03T13:42:25;3.50;;;1.40;;
54599;SDS011;40500;51.084;16.958;2023-04-03T13:48:07;2.50;;;1.70;;
54599;SDS011;40500;51.084;16.958;2023-04-03T13:50:54;2.60;;;1.40;;
54599;SDS011;40500;51.084;16.958;2023-04-03T13:53:25;2.20;;;1.50;;
54599;SDS011;40500;51.084;16.958;2023-04-03T13:55:56;1.40;;;1.10;;
54599;SDS011;40500;51.084;16.958;2023-04-03T13:58:27;1.80;;;1.40;;
54599;SDS011;40500;51.084;16.958;2023-04-03T14:00:59;2.80;;;1.30;;
54599;SDS011;40500;51.084;16.958;2023-04-03T14:03:37;2.00;;;1.80;;
54599;SDS011;40500;51.084;16.958;2023-04-03T14:06:09;2.20;;;1.30;;
54599;SDS011;40500;51.084;16.958;2023-04-03T14:08:38;4.20;;;1.60;;
54599;SDS011;40500;51.084;16.958;2023-04-03T14:11:12;1.60;;;1.30;;
54599;SDS011;40500;51.084;16.958;2023-04-03T14:13:41;2.00;;;1.70;;
54599;SDS011;40500;51.084;16.958;2023-04-03T14:16:12;2.20;;;1.40;;
54599;SDS011;40500;51.084;16.958;2023-04-03T14:18:43;3.30;;;1.80;;
54599;SDS011;40500;51.084;16.958;2023-04-03T14:21:11;2.50;;;1.70;;
54599;SDS011;40500;51.084;16.958;2023-04-03T14:23:40;4.40;;;1.20;;
54599;SDS011;40500;51.084;16.958;2023-04-03T14:26:10;1.80;;;1.50;;
54599;SDS011;40500;51.084;16.958;2023-04-03T14:28:39;1.40;;;1.20;;
54599;SDS011;40500;51.084;16.958;2023-04-03T14:31:10;2.10;;;1.50;;
54599;SDS011;40500;51.084;16.958;2023-04-03T14:33:38;2.00;;;1.50;;
54599;SDS011;40500;51.084;16.958;2023-04-03T14:36:11;1.90;;;1.20;;
54599;SDS011;40500;51.084;16.958;2023-04-03T14:38:41;1.30;;;1.20;;
54599;SDS011;40500;51.084;16.958;2023-04-03T14:41:11;1.60;;;1.40;;
54599;SDS011;40500;51.084;16.958;2023-04-03T14:43:43;1.70;;;1.20;;
54599;SDS011;40500;51.084;16.958;2023-04-03T14:46:13;3.40;;;1.40;;
54599;SDS011;40500;51.084;16.958;2023-04-03T14:48:43;2.10;;;1.30;;
54599;SDS011;40500;51.084;16.958;2023-04-03T14:51:12;2.90;;;1.40;;
54599;SDS011;40500;51.084;16.958;2023-04-03T14:53:41;1.80;;;1.20;;
54599;SDS011;40500;51.084;16.958;2023-04-03T14:56:12;1.70;;;1.40;;
54599;SDS011;40500;51.084;16.958;2023-04-03T14:58:42;3.30;;;1.40;;
54599;SDS011;40500;51.084;16.958;2023-04-03T15:01:11;3.50;;;1.60;;
54599;SDS011;40500;51.084;16.958;2023-04-03T15:03:40;5.50;;;2.00;;
54599;SDS011;40500;51.084;16.958;2023-04-03T15:06:09;2.80;;;1.50;;
54599;SDS011;40500;51.084;16.958;2023-04-03T15:08:39;3.40;;;1.60;;
54599;SDS011;40500;51.084;16.958;2023-04-03T15:11:08;1.40;;;1.20;;
54599;SDS011;40500;51.084;16.958;2023-04-03T15:13:37;2.00;;;1.30;;
54599;SDS011;40500;51.084;16.958;2023-04-03T15:16:05;1.90;;;1.40;;
54599;SDS011;40500;51.084;16.958;2023-04-03T15:18:42;5.10;;;2.00;;
54599;SDS011;40500;51.084;16.958;2023-04-03T15:21:10;2.40;;;1.40;;
54599;SDS011;40500;51.084;16.958;2023-04-03T15:23:38;3.80;;;1.80;;
54599;SDS011;40500;51.084;16.958;2023-04-03T15:26:05;2.50;;;1.40;;
54599;SDS011;40500;51.084;16.958;2023-04-03T15:28:34;2.30;;;1.60;;
54599;SDS011;40500;51.084;16.958;2023-04-03T15:31:04;3.10;;;1.80;;